Mini Explorer — FGD5276 — position and weather

sailwx.info

Track history (hours):
 
Tides and Currents Weather Stations Pressure Air Temp Water Temp Dewpoint Dewpoint Depression Visibility Wind Speed Wind Dir Waves Ship Positions

Mini Explorer

Last reported at 2016-Aug-09 20:31 UTC. Time now 2016-Aug-29 23:32 UTC.
Position N 38°55' W 028°31'.
Warning: this ship's position is 20 days out of date.

Length 6 m.

Type: Sailing vessel. MMSI: 227568370.

Date/timePositionNaut miles runAvg speedWind from/ knotsBaromVisibWave heightAir tempDewpointWater temp
2016-Aug-09 20:31N 38°55' W 028°31'7 6.1
2016-Aug-09 19:24N 38°48' W 028°31'5 6.0
2016-Aug-09 18:32N 38°43' W 028°32'6 6.0
2016-Aug-09 17:34N 38°37' W 028°33'4 4.5
2016-Aug-09 16:33N 38°32' W 028°34'2 1.5
2016-Aug-09 15:26N 38°32' W 028°36'  
2016-Aug-02 21:31N 38°32' W 028°38'0 0.0
2016-Aug-02 20:28N 38°32' W 028°38'0 0.0
2016-Aug-02 19:31N 38°32' W 028°38'0 0.0
2016-Aug-02 18:31N 38°32' W 028°38'2 1.8
2016-Aug-02 17:33N 38°32' W 028°35'4 4.5
2016-Aug-02 16:33N 38°37' W 028°34'5 5.3
2016-Aug-02 15:33N 38°38' W 028°28'3 3.3
2016-Aug-02 14:33N 38°41' W 028°26'6 5.8
2016-Aug-02 13:33N 38°47' W 028°28'4 3.4
2016-Aug-02 12:21N 38°50' W 028°25'4 4.1
2016-Aug-02 11:29N 38°51' W 028°21'5 3.8
2016-Aug-02 10:13N 38°56' W 028°20'  
Track history (hours):
 
Tides and Currents Weather Stations Pressure Air Temp Water Temp Dewpoint Dewpoint Depression Visibility Wind Speed Wind Dir Waves Ship Positions

Mini Explorer

Last reported at 2016-Aug-09 20:31 UTC. Time now 2016-Aug-29 23:32 UTC.
Position N 38°55' W 028°31'.
Warning: this ship's position is 20 days out of date.

Length 6 m.

Type: Sailing vessel. MMSI: 227568370.

Date/timePositionNaut miles runAvg speedWind from/ knotsBaromVisibWave heightAir tempDewpointWater temp
2016-Aug-09 20:31N 38°55' W 028°31'7 6.1
2016-Aug-09 19:24N 38°48' W 028°31'5 6.0
2016-Aug-09 18:32N 38°43' W 028°32'6 6.0
2016-Aug-09 17:34N 38°37' W 028°33'4 4.5
2016-Aug-09 16:33N 38°32' W 028°34'2 1.5
2016-Aug-09 15:26N 38°32' W 028°36'  
2016-Aug-02 21:31N 38°32' W 028°38'0 0.0
2016-Aug-02 20:28N 38°32' W 028°38'0 0.0
2016-Aug-02 19:31N 38°32' W 028°38'0 0.0
2016-Aug-02 18:31N 38°32' W 028°38'2 1.8
2016-Aug-02 17:33N 38°32' W 028°35'4 4.5
2016-Aug-02 16:33N 38°37' W 028°34'5 5.3
2016-Aug-02 15:33N 38°38' W 028°28'3 3.3
2016-Aug-02 14:33N 38°41' W 028°26'6 5.8
2016-Aug-02 13:33N 38°47' W 028°28'4 3.4
2016-Aug-02 12:21N 38°50' W 028°25'4 4.1
2016-Aug-02 11:29N 38°51' W 028°21'5 3.8
2016-Aug-02 10:13N 38°56' W 028°20'  

Dump ship's entire track history